Birk — V2BF5 — position and weather

sailwx.info

Track history (hours):
 
Tides and Currents Weather Stations Pressure Air Temp Water Temp Dewpoint Dewpoint Depression Visibility Wind Speed Wind Dir Waves Ship Positions

Birk

Last reported at 2016-Dec-04 07:30 UTC. Time now 2016-Dec-04 08:10 UTC.
Position N 10°41' W 061°39'.

Length 132 m; draft 5.1 m.

Type: Ship. MMSI: 304535000.

Date/timePositionNaut miles runAvg speedWind from/ knotsBaromVisibWave heightAir tempDewpointWater temp
2016-Dec-04 07:30N 10°41' W 061°39'0 0.0
2016-Dec-04 06:32N 10°41' W 061°39'0 0.0
2016-Dec-04 05:33N 10°41' W 061°39'0 0.0
2016-Dec-04 04:31N 10°41' W 061°39'0 0.0
2016-Dec-04 03:31N 10°41' W 061°39'0 0.0
2016-Dec-04 02:33N 10°41' W 061°39'0 0.0
2016-Dec-04 01:31N 10°41' W 061°39'0 0.0
2016-Dec-04 00:31N 10°41' W 061°39'0 0.0
2016-Dec-03 23:33N 10°41' W 061°39'0 0.0
2016-Dec-03 22:32N 10°41' W 061°39'0 0.0
2016-Dec-03 21:29N 10°41' W 061°39'0 0.0
2016-Dec-03 20:33N 10°41' W 061°39'0 0.0
2016-Dec-03 19:31N 10°41' W 061°39'0 0.0
2016-Dec-03 18:31N 10°41' W 061°39'0 0.0
2016-Dec-03 17:32N 10°41' W 061°39'0 0.0
2016-Dec-03 16:32N 10°41' W 061°39'0 0.0
2016-Dec-03 15:30N 10°41' W 061°39'0 0.0
2016-Dec-03 14:33N 10°41' W 061°39'0 0.0
2016-Dec-03 13:33N 10°41' W 061°39'0 0.0
2016-Dec-03 12:33N 10°41' W 061°39'0 0.0
2016-Dec-03 11:29N 10°41' W 061°39'0 0.0
2016-Dec-03 10:23N 10°41' W 061°39'0 0.0
2016-Dec-03 09:33N 10°41' W 061°39'0 0.0
2016-Dec-03 08:31N 10°41' W 061°39'0 0.0
2016-Dec-03 07:33N 10°41' W 061°39'0 0.0
2016-Dec-03 06:32N 10°41' W 061°39'0 0.0
2016-Dec-03 05:30N 10°41' W 061°39'0 0.0
2016-Dec-03 04:31N 10°41' W 061°39'0 0.0
2016-Dec-03 03:31N 10°41' W 061°39'0 0.0
2016-Dec-03 02:31N 10°41' W 061°39'0 0.0
2016-Dec-03 01:31N 10°41' W 061°39'0 0.0
2016-Dec-03 00:33N 10°41' W 061°39'0 0.0
2016-Dec-02 23:31N 10°41' W 061°39'0 0.0
2016-Dec-02 22:32N 10°41' W 061°39'0 0.0
2016-Dec-02 21:33N 10°41' W 061°39'0 0.0
2016-Dec-02 20:33N 10°41' W 061°39'0 0.0
2016-Dec-02 19:27N 10°41' W 061°39'0 0.0
2016-Dec-02 18:31N 10°41' W 061°39'0 0.0
2016-Dec-02 17:31N 10°41' W 061°39'0 0.0
2016-Dec-02 16:31N 10°41' W 061°39'0 0.0
2016-Dec-02 15:32N 10°41' W 061°39'0 0.0
2016-Dec-02 14:32N 10°41' W 061°39'0 0.0
2016-Dec-02 13:27N 10°41' W 061°39'1 0.8
2016-Dec-02 12:33N 10°40' W 061°39'2 2.3
2016-Dec-02 11:31N 10°38' W 061°40'0 0.0
2016-Dec-02 10:32N 10°38' W 061°40'0 0.0
2016-Dec-02 09:31N 10°38' W 061°40'0 0.0
2016-Dec-02 08:31N 10°38' W 061°40'0 0.0
2016-Dec-02 07:28N 10°38' W 061°40'0 0.0
2016-Dec-02 06:31N 10°38' W 061°40'0 0.0
2016-Dec-02 05:32N 10°38' W 061°40'0 0.0
2016-Dec-02 04:31N 10°38' W 061°40'0 0.0
2016-Dec-02 03:31N 10°38' W 061°40'0 0.1
2016-Dec-02 02:32N 10°38' W 061°40'0 0.0
2016-Dec-02 01:29N 10°38' W 061°40'0 0.0
2016-Dec-02 00:32N 10°38' W 061°40'0 0.0
2016-Dec-01 23:31N 10°38' W 061°40'0 0.0
2016-Dec-01 22:31N 10°38' W 061°40'0 0.1
2016-Dec-01 21:33N 10°38' W 061°40'2 2.2
2016-Dec-01 20:33N 10°38' W 061°38'6 6.1
2016-Dec-01 19:32N 10°39' W 061°31'0 0.0
2016-Dec-01 18:32N 10°39' W 061°31'0 0.0
2016-Dec-01 17:32N 10°39' W 061°31'0 0.0
2016-Dec-01 16:29N 10°39' W 061°31'0 0.0
2016-Dec-01 15:28N 10°39' W 061°31'0 0.0
2016-Dec-01 14:32N 10°39' W 061°31'0 0.0
2016-Dec-01 13:33N 10°39' W 061°31'0 0.0
2016-Dec-01 12:31N 10°39' W 061°31'0 0.0
2016-Dec-01 11:25N 10°39' W 061°31'0 0.0
2016-Dec-01 10:32N 10°39' W 061°31'0 0.0
2016-Dec-01 09:27N 10°39' W 061°31'0 0.0
2016-Dec-01 08:32N 10°39' W 061°31'0 0.0
2016-Dec-01 07:32N 10°39' W 061°31'0 0.0
2016-Dec-01 06:33N 10°39' W 061°31'0 0.0
2016-Dec-01 05:33N 10°39' W 061°31'0 0.0
2016-Dec-01 04:30N 10°39' W 061°31'0 0.0
2016-Dec-01 03:33N 10°39' W 061°31'0 0.0
2016-Dec-01 02:31N 10°39' W 061°31'0 0.0
2016-Dec-01 01:32N 10°39' W 061°31'0 0.0
2016-Dec-01 00:33N 10°39' W 061°31'1 0.7
2016-Nov-30 23:33N 10°39' W 061°32'8 8.1
2016-Nov-30 22:33N 10°35' W 061°39'8 8.3
2016-Nov-30 21:33N 10°29' W 061°45'8 8.4
2016-Nov-30 20:33N 10°23' W 061°51'  
Track history (hours):
 
Tides and Currents Weather Stations Pressure Air Temp Water Temp Dewpoint Dewpoint Depression Visibility Wind Speed Wind Dir Waves Ship Positions

Birk

Last reported at 2016-Dec-04 07:30 UTC. Time now 2016-Dec-04 08:10 UTC.
Position N 10°41' W 061°39'.

Length 132 m; draft 5.1 m.

Type: Ship. MMSI: 304535000.

Date/timePositionNaut miles runAvg speedWind from/ knotsBaromVisibWave heightAir tempDewpointWater temp
2016-Dec-04 07:30N 10°41' W 061°39'0 0.0
2016-Dec-04 06:32N 10°41' W 061°39'0 0.0
2016-Dec-04 05:33N 10°41' W 061°39'0 0.0
2016-Dec-04 04:31N 10°41' W 061°39'0 0.0
2016-Dec-04 03:31N 10°41' W 061°39'0 0.0
2016-Dec-04 02:33N 10°41' W 061°39'0 0.0
2016-Dec-04 01:31N 10°41' W 061°39'0 0.0
2016-Dec-04 00:31N 10°41' W 061°39'0 0.0
2016-Dec-03 23:33N 10°41' W 061°39'0 0.0
2016-Dec-03 22:32N 10°41' W 061°39'0 0.0
2016-Dec-03 21:29N 10°41' W 061°39'0 0.0
2016-Dec-03 20:33N 10°41' W 061°39'0 0.0
2016-Dec-03 19:31N 10°41' W 061°39'0 0.0
2016-Dec-03 18:31N 10°41' W 061°39'0 0.0
2016-Dec-03 17:32N 10°41' W 061°39'0 0.0
2016-Dec-03 16:32N 10°41' W 061°39'0 0.0
2016-Dec-03 15:30N 10°41' W 061°39'0 0.0
2016-Dec-03 14:33N 10°41' W 061°39'0 0.0
2016-Dec-03 13:33N 10°41' W 061°39'0 0.0
2016-Dec-03 12:33N 10°41' W 061°39'0 0.0
2016-Dec-03 11:29N 10°41' W 061°39'0 0.0
2016-Dec-03 10:23N 10°41' W 061°39'0 0.0
2016-Dec-03 09:33N 10°41' W 061°39'0 0.0
2016-Dec-03 08:31N 10°41' W 061°39'0 0.0
2016-Dec-03 07:33N 10°41' W 061°39'0 0.0
2016-Dec-03 06:32N 10°41' W 061°39'0 0.0
2016-Dec-03 05:30N 10°41' W 061°39'0 0.0
2016-Dec-03 04:31N 10°41' W 061°39'0 0.0
2016-Dec-03 03:31N 10°41' W 061°39'0 0.0
2016-Dec-03 02:31N 10°41' W 061°39'0 0.0
2016-Dec-03 01:31N 10°41' W 061°39'0 0.0
2016-Dec-03 00:33N 10°41' W 061°39'0 0.0
2016-Dec-02 23:31N 10°41' W 061°39'0 0.0
2016-Dec-02 22:32N 10°41' W 061°39'0 0.0
2016-Dec-02 21:33N 10°41' W 061°39'0 0.0
2016-Dec-02 20:33N 10°41' W 061°39'0 0.0
2016-Dec-02 19:27N 10°41' W 061°39'0 0.0
2016-Dec-02 18:31N 10°41' W 061°39'0 0.0
2016-Dec-02 17:31N 10°41' W 061°39'0 0.0
2016-Dec-02 16:31N 10°41' W 061°39'0 0.0
2016-Dec-02 15:32N 10°41' W 061°39'0 0.0
2016-Dec-02 14:32N 10°41' W 061°39'0 0.0
2016-Dec-02 13:27N 10°41' W 061°39'1 0.8
2016-Dec-02 12:33N 10°40' W 061°39'2 2.3
2016-Dec-02 11:31N 10°38' W 061°40'0 0.0
2016-Dec-02 10:32N 10°38' W 061°40'0 0.0
2016-Dec-02 09:31N 10°38' W 061°40'0 0.0
2016-Dec-02 08:31N 10°38' W 061°40'0 0.0
2016-Dec-02 07:28N 10°38' W 061°40'0 0.0
2016-Dec-02 06:31N 10°38' W 061°40'0 0.0
2016-Dec-02 05:32N 10°38' W 061°40'0 0.0
2016-Dec-02 04:31N 10°38' W 061°40'0 0.0
2016-Dec-02 03:31N 10°38' W 061°40'0 0.1
2016-Dec-02 02:32N 10°38' W 061°40'0 0.0
2016-Dec-02 01:29N 10°38' W 061°40'0 0.0
2016-Dec-02 00:32N 10°38' W 061°40'0 0.0
2016-Dec-01 23:31N 10°38' W 061°40'0 0.0
2016-Dec-01 22:31N 10°38' W 061°40'0 0.1
2016-Dec-01 21:33N 10°38' W 061°40'2 2.2
2016-Dec-01 20:33N 10°38' W 061°38'6 6.1
2016-Dec-01 19:32N 10°39' W 061°31'0 0.0
2016-Dec-01 18:32N 10°39' W 061°31'0 0.0
2016-Dec-01 17:32N 10°39' W 061°31'0 0.0
2016-Dec-01 16:29N 10°39' W 061°31'0 0.0
2016-Dec-01 15:28N 10°39' W 061°31'0 0.0
2016-Dec-01 14:32N 10°39' W 061°31'0 0.0
2016-Dec-01 13:33N 10°39' W 061°31'0 0.0
2016-Dec-01 12:31N 10°39' W 061°31'0 0.0
2016-Dec-01 11:25N 10°39' W 061°31'0 0.0
2016-Dec-01 10:32N 10°39' W 061°31'0 0.0
2016-Dec-01 09:27N 10°39' W 061°31'0 0.0
2016-Dec-01 08:32N 10°39' W 061°31'0 0.0
2016-Dec-01 07:32N 10°39' W 061°31'0 0.0
2016-Dec-01 06:33N 10°39' W 061°31'0 0.0
2016-Dec-01 05:33N 10°39' W 061°31'0 0.0
2016-Dec-01 04:30N 10°39' W 061°31'0 0.0
2016-Dec-01 03:33N 10°39' W 061°31'0 0.0
2016-Dec-01 02:31N 10°39' W 061°31'0 0.0
2016-Dec-01 01:32N 10°39' W 061°31'0 0.0
2016-Dec-01 00:33N 10°39' W 061°31'1 0.7
2016-Nov-30 23:33N 10°39' W 061°32'8 8.1
2016-Nov-30 22:33N 10°35' W 061°39'8 8.3
2016-Nov-30 21:33N 10°29' W 061°45'8 8.4
2016-Nov-30 20:33N 10°23' W 061°51'  

Dump ship's entire track history